Wetterdaten: Woche 30.09.13 - 06.10.13 (KW40)
Datum Zeit Temp. A. Feuchte A. Luftdruck Regen Wind Richtung Taupunkt Windchill Windben
30.09.2013 00:00 10,4 C 75 % 1012,8 hPa 0,0 l/m 2,7 km/h N 6,2 C 10,4 C 12,1 km/h
30.09.2013 01:00 10,4 C 75 % 1012,8 hPa 0,0 l/m 1,5 km/h N 6,2 C 10,4 C 6,8 km/h
30.09.2013 02:00 9,8 C 80 % 1012,6 hPa 0,0 l/m 0,4 km/h N 6,5 C 9,8 C 4,4 km/h
30.09.2013 03:00 9,5 C 82 % 1012,2 hPa 0,0 l/m 0,5 km/h N 6,6 C 9,5 C 4,8 km/h
30.09.2013 04:00 9,4 C 83 % 1011,9 hPa 0,0 l/m 0,8 km/h N 6,6 C 9,4 C 5,6 km/h
30.09.2013 05:00 9,2 C 83 % 1011,7 hPa 0,0 l/m 0,8 km/h N 6,5 C 9,2 C 5,2 km/h
30.09.2013 06:00 9,1 C 84 % 1011,6 hPa 0,0 l/m 0,4 km/h N 6,6 C 9,1 C 4,4 km/h
30.09.2013 07:00 8,9 C 84 % 1011,7 hPa 0,0 l/m 0,7 km/h N 6,2 C 8,9 C 5,2 km/h
30.09.2013 08:00 9,2 C 81 % 1011,8 hPa 0,0 l/m 0,3 km/h N 6,1 C 9,2 C 4,0 km/h
30.09.2013 09:00 9,9 C 76 % 1011,9 hPa 0,0 l/m 0,5 km/h N 5,8 C 9,9 C 3,6 km/h
30.09.2013 10:00 10,8 C 73 % 1011,9 hPa 0,0 l/m 0,8 km/h N 6,1 C 10,8 C 5,2 km/h
30.09.2013 11:00 11,1 C 69 % 1011,8 hPa 0,0 l/m 0,8 km/h N 5,6 C 11,1 C 4,8 km/h
30.09.2013 12:00 11,6 C 66 % 1011,5 hPa 0,0 l/m 0,5 km/h N 5,5 C 11,6 C 4,4 km/h
30.09.2013 13:00 12,1 C 66 % 1011,1 hPa 0,0 l/m 0,7 km/h N 6,0 C 12,1 C 5,2 km/h
30.09.2013 14:00 12,7 C 64 % 1010,6 hPa 0,0 l/m 0,9 km/h N 6,0 C 12,7 C 6,8 km/h
30.09.2013 15:00 13,0 C 65 % 1010,4 hPa 0,0 l/m 0,6 km/h N 6,4 C 13,0 C 4,8 km/h
30.09.2013 16:00 12,8 C 66 % 1010,4 hPa 0,0 l/m 0,3 km/h N 6,5 C 12,8 C 4,4 km/h
30.09.2013 17:00 12,7 C 70 % 1010,3 hPa 0,0 l/m 0,0 km/h N 7,4 C 12,7 C 0,0 km/h
30.09.2013 18:00 12,0 C 74 % 1010,3 hPa 0,0 l/m 0,2 km/h N 7,5 C 12,0 C 3,6 km/h
30.09.2013 19:00 11,3 C 78 % 1010,7 hPa 0,0 l/m 0,2 km/h N 7,6 C 11,3 C 2,8 km/h
30.09.2013 20:00 10,8 C 78 % 1010,8 hPa 0,0 l/m 0,2 km/h N 7,1 C 10,8 C 1,6 km/h
30.09.2013 21:00 11,0 C 74 % 1011,1 hPa 0,0 l/m 1,0 km/h N 6,5 C 11,0 C 6,0 km/h
30.09.2013 22:00 10,9 C 71 % 1011,2 hPa 0,0 l/m 1,2 km/h N 5,8 C 10,9 C 7,2 km/h
30.09.2013 23:00 10,1 C 71 % 1011,3 hPa 0,0 l/m 0,6 km/h N 5,2 C 10,1 C 5,2 km/h
01.10.2013 00:00 9,3 C 78 % 1011,4 hPa 0,0 l/m 0,4 km/h N 5,6 C 9,3 C 3,2 km/h
01.10.2013 01:00 8,5 C 81 % 1011,5 hPa 0,0 l/m 0,0 km/h N 5,3 C 8,5 C 0,8 km/h
01.10.2013 02:00 7,4 C 82 % 1011,4 hPa 0,0 l/m 0,0 km/h N 4,5 C 7,4 C 0,0 km/h
01.10.2013 03:00 6,2 C 83 % 1011,5 hPa 0,0 l/m 0,0 km/h N 3,5 C 6,2 C 0,0 km/h
01.10.2013 04:00 5,1 C 84 % 1011,5 hPa 0,0 l/m 0,0 km/h N 2,7 C 5,1 C 0,0 km/h
01.10.2013 05:00 4,3 C 85 % 1011,6 hPa 0,0 l/m 0,0 km/h N 2,0 C 4,3 C 0,0 km/h
01.10.2013 06:00 3,8 C 85 % 1011,6 hPa 0,0 l/m 0,0 km/h N 1,5 C 3,8 C 0,0 km/h
01.10.2013 07:00 3,3 C 84 % 1012,0 hPa 0,0 l/m 0,0 km/h N 0,9 C 3,3 C 0,8 km/h
01.10.2013 08:00 5,3 C 83 % 1012,1 hPa 0,0 l/m 3,0 km/h N 2,7 C 5,3 C 8,5 km/h
01.10.2013 09:00 7,6 C 77 % 1012,2 hPa 0,0 l/m 6,2 km/h N 3,8 C 7,3 C 17,3 km/h
01.10.2013 10:00 9,1 C 72 % 1012,3 hPa 0,0 l/m 6,3 km/h N 4,3 C 9,0 C 16,5 km/h
01.10.2013 11:00 10,5 C 69 % 1012,2 hPa 0,0 l/m 7,1 km/h N 5,1 C 9,9 C 19,3 km/h
01.10.2013 12:00 11,8 C 62 % 1012,0 hPa 0,0 l/m 7,1 km/h N 4,7 C 11,3 C 19,3 km/h
01.10.2013 13:00 12,3 C 60 % 1011,9 hPa 0,0 l/m 8,7 km/h N 4,6 C 10,9 C 22,5 km/h
01.10.2013 14:00 12,3 C 57 % 1012,1 hPa 0,0 l/m 8,2 km/h N 4,0 C 11,2 C 20,9 km/h
01.10.2013 15:00 12,6 C 55 % 1012,0 hPa 0,0 l/m 7,1 km/h N 3,8 C 12,2 C 20,1 km/h
01.10.2013 16:00 12,8 C 54 % 1012,0 hPa 0,0 l/m 5,9 km/h N 3,6 C 12,6 C 18,1 km/h
01.10.2013 17:00 12,5 C 53 % 1012,3 hPa 0,0 l/m 4,7 km/h N 3,2 C 12,5 C 18,5 km/h
01.10.2013 18:00 11,6 C 56 % 1013,0 hPa 0,0 l/m 3,0 km/h N 3,0 C 11,6 C 12,1 km/h
01.10.2013 19:00 10,3 C 62 % 1014,0 hPa 0,0 l/m 2,1 km/h N 3,2 C 10,3 C 10,0 km/h
01.10.2013 20:00 10,0 C 61 % 1014,6 hPa 0,0 l/m 3,5 km/h N 2,7 C 10,0 C 12,5 km/h
01.10.2013 21:00 9,1 C 62 % 1015,2 hPa 0,0 l/m 4,0 km/h N 2,2 C 9,1 C 13,3 km/h
01.10.2013 22:00 8,5 C 64 % 1015,6 hPa 0,0 l/m 3,4 km/h N 2,0 C 8,5 C 13,3 km/h
01.10.2013 23:00 8,2 C 65 % 1016,1 hPa 0,0 l/m 3,6 km/h N 1,9 C 8,2 C 14,9 km/h
02.10.2013 00:00 7,6 C 65 % 1016,5 hPa 0,0 l/m 4,2 km/h N 1,5 C 7,6 C 13,7 km/h
02.10.2013 01:00 7,0 C 67 % 1016,9 hPa 0,0 l/m 5,6 km/h N 1,2 C 7,0 C 16,9 km/h
02.10.2013 02:00 6,4 C 69 % 1017,3 hPa 0,0 l/m 4,3 km/h N 1,0 C 6,4 C 12,9 km/h
02.10.2013 03:00 5,9 C 69 % 1017,5 hPa 0,0 l/m 4,9 km/h N 0,7 C 5,9 C 14,9 km/h
02.10.2013 04:00 5,5 C 70 % 1018,0 hPa 0,0 l/m 5,3 km/h N 0,6 C 5,5 C 16,1 km/h
02.10.2013 05:00 5,2 C 71 % 1018,5 hPa 0,0 l/m 4,2 km/h N 0,4 C 5,2 C 13,7 km/h
02.10.2013 06:00 5,1 C 72 % 1019,1 hPa 0,0 l/m 4,8 km/h N 0,5 C 5,1 C 14,9 km/h
02.10.2013 07:00 5,5 C 72 % 1019,9 hPa 0,0 l/m 5,3 km/h N 0,8 C 5,5 C 16,5 km/h
02.10.2013 08:00 5,8 C 71 % 1020,7 hPa 0,0 l/m 5,8 km/h N 1,0 C 5,6 C 17,3 km/h
02.10.2013 09:00 6,3 C 70 % 1021,4 hPa 0,0 l/m 6,3 km/h N 1,3 C 6,2 C 19,3 km/h
02.10.2013 10:00 7,1 C 69 % 1022,0 hPa 0,0 l/m 6,8 km/h N 1,8 C 6,7 C 20,5 km/h
02.10.2013 11:00 8,0 C 68 % 1022,3 hPa 0,0 l/m 5,7 km/h N 2,5 C 8,0 C 16,9 km/h
02.10.2013 12:00 9,7 C 64 % 1022,5 hPa 0,0 l/m 5,4 km/h N 3,1 C 9,7 C 16,9 km/h
02.10.2013 13:00 10,9 C 59 % 1022,3 hPa 0,0 l/m 5,0 km/h N 3,1 C 10,9 C 16,1 km/h
02.10.2013 14:00 12,1 C 54 % 1022,1 hPa 0,0 l/m 4,2 km/h N 3,0 C 12,1 C 18,9 km/h
02.10.2013 15:00 11,9 C 49 % 1022,6 hPa 0,0 l/m 5,0 km/h N 1,4 C 11,7 C 14,9 km/h
02.10.2013 16:00 11,7 C 49 % 1022,9 hPa 0,0 l/m 4,2 km/h N 1,2 C 11,7 C 14,5 km/h
02.10.2013 17:00 11,2 C 48 % 1023,3 hPa 0,0 l/m 2,7 km/h N 0,7 C 11,2 C 12,1 km/h
02.10.2013 18:00 10,6 C 50 % 1024,1 hPa 0,0 l/m 2,3 km/h N 0,7 C 10,6 C 13,3 km/h
02.10.2013 19:00 10,1 C 51 % 1024,9 hPa 0,0 l/m 3,0 km/h N 0,3 C 10,1 C 11,3 km/h
02.10.2013 20:00 8,9 C 56 % 1025,9 hPa 0,0 l/m 1,9 km/h N 0,6 C 8,9 C 7,6 km/h
02.10.2013 21:00 7,6 C 62 % 1026,6 hPa 0,0 l/m 0,6 km/h N 0,8 C 7,6 C 5,2 km/h
02.10.2013 22:00 5,7 C 70 % 1027,3 hPa 0,0 l/m 0,4 km/h N 0,6 C 5,7 C 4,0 km/h
02.10.2013 23:00 4,4 C 74 % 1027,7 hPa 0,0 l/m 0,2 km/h N 0,3 C 4,4 C 3,2 km/h
03.10.2013 00:00 3,0 C 77 % 1028,0 hPa 0,0 l/m 0,0 km/h N -0,7 C 3,0 C 0,4 km/h
03.10.2013 01:00 1,8 C 80 % 1028,2 hPa 0,0 l/m 0,0 km/h N -1,4 C 1,8 C 0,0 km/h
03.10.2013 02:00 0,7 C 82 % 1028,4 hPa 0,0 l/m 0,0 km/h N -2,1 C 0,7 C 0,0 km/h
03.10.2013 03:00 -0,0 C 83 % 1028,4 hPa 0,0 l/m 0,0 km/h N -2,6 C -0,0 C 0,0 km/h
03.10.2013 04:00 -0,5 C 84 % 1028,6 hPa 0,0 l/m 0,0 km/h N -2,9 C -0,5 C 0,0 km/h
03.10.2013 05:00 -1,1 C 85 % 1029,0 hPa 0,0 l/m 0,0 km/h N -3,3 C -1,1 C 0,0 km/h
03.10.2013 06:00 -1,5 C 85 % 1029,4 hPa 0,0 l/m 0,0 km/h N -3,7 C -1,5 C 0,4 km/h
03.10.2013 07:00 -1,7 C 85 % 1029,6 hPa 0,0 l/m 0,0 km/h N -3,9 C -1,7 C 0,0 km/h
03.10.2013 08:00 -0,3 C 84 % 1030,1 hPa 0,0 l/m 0,1 km/h N -2,8 C -0,3 C 2,0 km/h
03.10.2013 09:00 3,5 C 82 % 1030,4 hPa 0,0 l/m 1,4 km/h N 0,7 C 3,5 C 5,6 km/h
03.10.2013 10:00 7,0 C 71 % 1030,6 hPa 0,0 l/m 3,5 km/h N 2,1 C 7,0 C 10,7 km/h
03.10.2013 11:00 8,9 C 51 % 1030,6 hPa 0,0 l/m 8,9 km/h N -0,9 C 7,1 C 25,8 km/h
03.10.2013 12:00 9,9 C 49 % 1030,4 hPa 0,0 l/m 9,6 km/h N -0,5 C 7,7 C 25,7 km/h
03.10.2013 13:00 10,2 C 47 % 1030,2 hPa 0,0 l/m 9,7 km/h N -0,7 C 8,0 C 24,1 km/h
03.10.2013 14:00 10,5 C 48 % 1029,6 hPa 0,0 l/m 8,9 km/h N -0,1 C 8,9 C 27,4 km/h
03.10.2013 15:00 10,6 C 48 % 1029,4 hPa 0,0 l/m 9,7 km/h N 0,0 C 8,4 C 25,0 km/h
03.10.2013 16:00 10,4 C 48 % 1029,3 hPa 0,0 l/m 8,0 km/h N -0,3 C 9,3 C 21,7 km/h
03.10.2013 17:00 9,9 C 51 % 1029,2 hPa 0,0 l/m 6,4 km/h N 0,1 C 9,9 C 23,3 km/h
03.10.2013 18:00 8,8 C 54 % 1029,6 hPa 0,0 l/m 4,8 km/h N -0,1 C 8,8 C 16,9 km/h
03.10.2013 19:00 7,5 C 58 % 1029,9 hPa 0,0 l/m 0,8 km/h N -0,2 C 7,5 C 8,1 km/h
03.10.2013 20:00 6,5 C 64 % 1030,0 hPa 0,0 l/m 2,4 km/h N 0,2 C 6,5 C 9,7 km/h
03.10.2013 21:00 5,6 C 68 % 1030,2 hPa 0,0 l/m 2,6 km/h N 0,2 C 5,6 C 10,7 km/h
03.10.2013 22:00 5,4 C 69 % 1030,0 hPa 0,0 l/m 4,4 km/h N 0,1 C 5,4 C 14,9 km/h
03.10.2013 23:00 5,9 C 65 % 1029,8 hPa 0,0 l/m 6,8 km/h N -0,1 C 5,6 C 18,1 km/h
04.10.2013 00:00 5,8 C 65 % 1029,4 hPa 0,0 l/m 6,6 km/h N -0,4 C 5,3 C 18,9 km/h
04.10.2013 01:00 5,6 C 63 % 1029,2 hPa 0,0 l/m 7,0 km/h N -0,9 C 4,4 C 19,3 km/h
04.10.2013 02:00 3,9 C 72 % 1029,3 hPa 0,0 l/m 4,4 km/h N -0,7 C 3,9 C 15,3 km/h
04.10.2013 03:00 3,3 C 76 % 1029,1 hPa 0,0 l/m 4,8 km/h N -0,6 C 3,3 C 18,1 km/h
04.10.2013 04:00 2,9 C 77 % 1028,9 hPa 0,0 l/m 5,0 km/h N -0,8 C 2,9 C 19,3 km/h
04.10.2013 05:00 2,6 C 77 % 1028,8 hPa 0,0 l/m 4,8 km/h N -1,0 C 2,6 C 18,1 km/h
04.10.2013 06:00 2,6 C 77 % 1028,6 hPa 0,0 l/m 5,6 km/h N -1,0 C 2,6 C 18,9 km/h
04.10.2013 07:00 2,9 C 75 % 1028,7 hPa 0,0 l/m 4,8 km/h N -1,2 C 2,9 C 18,5 km/h
04.10.2013 08:00 4,0 C 70 % 1029,0 hPa 0,0 l/m 5,8 km/h N -0,9 C 4,0 C 21,3 km/h
04.10.2013 09:00 6,6 C 63 % 1029,1 hPa 0,0 l/m 7,4 km/h N 0,0 C 5,7 C 20,1 km/h
04.10.2013 10:00 8,5 C 57 % 1029,0 hPa 0,0 l/m 10,9 km/h N 0,5 C 5,5 C 29,8 km/h
04.10.2013 11:00 9,9 C 54 % 1029,0 hPa 0,0 l/m 11,8 km/h N 1,0 C 6,5 C 28,6 km/h
04.10.2013 12:00 11,2 C 49 % 1028,6 hPa 0,0 l/m 13,5 km/h N 0,9 C 7,3 C 30,6 km/h
04.10.2013 13:00 12,3 C 45 % 1028,1 hPa 0,0 l/m 13,1 km/h N 0,8 C 8,7 C 32,6 km/h
04.10.2013 14:00 12,7 C 46 % 1027,7 hPa 0,0 l/m 10,9 km/h N 1,3 C 10,1 C 28,2 km/h
04.10.2013 15:00 12,4 C 47 % 1027,2 hPa 0,0 l/m 9,9 km/h N 1,5 C 10,4 C 28,2 km/h
04.10.2013 16:00 11,8 C 48 % 1026,9 hPa 0,0 l/m 8,5 km/h N 1,2 C 10,5 C 23,3 km/h
04.10.2013 17:00 11,1 C 50 % 1026,9 hPa 0,0 l/m 8,7 km/h N 1,0 C 9,6 C 25,4 km/h
04.10.2013 18:00 9,8 C 54 % 1026,9 hPa 0,0 l/m 4,0 km/h N 0,9 C 9,8 C 14,9 km/h
04.10.2013 19:00 8,5 C 60 % 1027,1 hPa 0,0 l/m 3,2 km/h N 1,2 C 8,5 C 12,9 km/h
04.10.2013 20:00 7,8 C 64 % 1026,6 hPa 0,0 l/m 4,5 km/h N 1,3 C 7,8 C 15,7 km/h
04.10.2013 21:00 7,1 C 66 % 1026,3 hPa 0,0 l/m 2,7 km/h N 1,1 C 7,1 C 12,5 km/h
04.10.2013 22:00 6,6 C 67 % 1025,8 hPa 0,0 l/m 2,8 km/h N 0,9 C 6,6 C 11,7 km/h
04.10.2013 23:00 6,4 C 67 % 1025,2 hPa 0,0 l/m 4,5 km/h N 0,7 C 6,5 C 15,3 km/h
05.10.2013 00:00 5,9 C 69 % 1024,8 hPa 0,0 l/m 1,4 km/h N 0,6 C 5,9 C 7,7 km/h
05.10.2013 01:00 5,6 C 70 % 1024,1 hPa 0,0 l/m 3,6 km/h N 0,6 C 5,6 C 12,0 km/h
05.10.2013 02:00 6,0 C 68 % 1023,6 hPa 0,0 l/m 3,8 km/h N 0,4 C 6,0 C 13,3 km/h
05.10.2013 03:00 5,6 C 69 % 1022,8 hPa 0,0 l/m 6,1 km/h N 0,4 C 5,1 C 17,3 km/h
05.10.2013 04:00 4,8 C 73 % 1022,3 hPa 0,0 l/m 2,1 km/h N 0,3 C 4,8 C 9,3 km/h
05.10.2013 05:00 3,8 C 77 % 1022,0 hPa 0,0 l/m 3,8 km/h N 0,1 C 3,8 C 14,9 km/h
05.10.2013 06:00 3,3 C 79 % 1021,7 hPa 0,0 l/m 5,3 km/h N 0,0 C 3,3 C 16,9 km/h
05.10.2013 07:00 3,4 C 80 % 1021,6 hPa 0,0 l/m 5,4 km/h N 0,2 C 3,4 C 17,7 km/h
05.10.2013 08:00 4,9 C 75 % 1021,3 hPa 0,0 l/m 7,3 km/h N 0,9 C 3,6 C 21,3 km/h
05.10.2013 09:00 7,7 C 64 % 1020,9 hPa 0,0 l/m 13,7 km/h N 1,3 C 3,0 C 31,4 km/h
05.10.2013 10:00 9,6 C 59 % 1021,0 hPa 0,0 l/m 14,0 km/h N 1,8 C 5,1 C 31,8 km/h
05.10.2013 11:00 10,4 C 58 % 1020,9 hPa 0,0 l/m 13,4 km/h N 2,4 C 6,3 C 33,8 km/h
05.10.2013 12:00 11,4 C 55 % 1021,0 hPa 0,0 l/m 14,6 km/h N 2,6 C 7,0 C 35,0 km/h
05.10.2013 13:00 12,2 C 53 % 1021,1 hPa 0,0 l/m 11,9 km/h N 3,0 C 9,1 C 28,1 km/h
05.10.2013 14:00 12,5 C 54 % 1020,5 hPa 0,0 l/m 12,6 km/h N 3,3 C 9,1 C 31,0 km/h
05.10.2013 15:00 11,9 C 56 % 1020,2 hPa 0,0 l/m 10,2 km/h N 3,3 C 9,6 C 25,3 km/h
05.10.2013 16:00 11,9 C 57 % 1020,0 hPa 0,0 l/m 8,4 km/h N 3,5 C 10,5 C 22,5 km/h
05.10.2013 17:00 11,6 C 57 % 1019,8 hPa 0,0 l/m 6,5 km/h N 3,5 C 11,3 C 18,5 km/h
05.10.2013 18:00 11,2 C 58 % 1020,0 hPa 0,0 l/m 5,9 km/h N 3,1 C 11,2 C 18,1 km/h
05.10.2013 19:00 10,6 C 59 % 1020,1 hPa 0,0 l/m 3,9 km/h N 2,9 C 10,6 C 12,5 km/h
05.10.2013 20:00 10,4 C 61 % 1020,3 hPa 0,0 l/m 2,2 km/h N 3,2 C 10,4 C 9,3 km/h
05.10.2013 21:00 10,1 C 63 % 1020,4 hPa 0,0 l/m 3,0 km/h N 3,4 C 10,1 C 9,7 km/h
05.10.2013 22:00 9,8 C 66 % 1020,5 hPa 0,0 l/m 1,8 km/h N 3,7 C 9,8 C 7,2 km/h
05.10.2013 23:00 9,8 C 68 % 1020,5 hPa 0,0 l/m 1,0 km/h N 4,2 C 9,8 C 6,0 km/h
06.10.2013 00:00 9,7 C 70 % 1020,6 hPa 0,0 l/m 1,5 km/h N 4,6 C 9,7 C 6,8 km/h
06.10.2013 01:00 9,6 C 73 % 1020,7 hPa 0,5 l/m 0,9 km/h N 5,0 C 9,6 C 5,2 km/h
06.10.2013 02:00 9,0 C 81 % 1020,8 hPa 0,3 l/m 0,0 km/h N 5,8 C 9,0 C 1,2 km/h
06.10.2013 03:00 8,8 C 83 % 1021,1 hPa 0,0 l/m 0,0 km/h N 6,1 C 8,8 C 0,0 km/h
06.10.2013 04:00 8,5 C 84 % 1021,5 hPa 0,5 l/m 0,2 km/h N 5,9 C 8,5 C 1,6 km/h
06.10.2013 05:00 8,2 C 84 % 1021,8 hPa 0,8 l/m 0,1 km/h N 5,7 C 8,2 C 2,4 km/h
06.10.2013 06:00 7,9 C 83 % 1022,0 hPa 0,0 l/m 0,8 km/h N 5,2 C 7,9 C 4,8 km/h
06.10.2013 07:00 8,1 C 82 % 1022,3 hPa 0,3 l/m 0,4 km/h N 5,1 C 8,1 C 4,0 km/h
06.10.2013 08:00 8,4 C 81 % 1022,7 hPa 0,0 l/m 0,6 km/h N 5,3 C 8,4 C 4,8 km/h
06.10.2013 09:00 8,6 C 81 % 1023,3 hPa 0,0 l/m 1,6 km/h N 5,5 C 8,6 C 6,4 km/h
06.10.2013 10:00 8,9 C 81 % 1023,8 hPa 0,0 l/m 2,1 km/h N 5,8 C 8,9 C 7,2 km/h
06.10.2013 11:00 9,0 C 82 % 1024,2 hPa 0,0 l/m 2,0 km/h N 6,1 C 9,0 C 8,0 km/h
06.10.2013 12:00 9,6 C 83 % 1024,3 hPa 0,0 l/m 0,8 km/h N 6,8 C 9,6 C 4,8 km/h
06.10.2013 13:00 10,1 C 84 % 1024,4 hPa 0,0 l/m 0,3 km/h N 7,4 C 10,1 C 3,6 km/h
06.10.2013 14:00 10,2 C 84 % 1024,4 hPa 0,0 l/m 0,2 km/h N 7,6 C 10,2 C 2,0 km/h
06.10.2013 15:00 10,5 C 84 % 1024,5 hPa 0,0 l/m 0,0 km/h N 7,9 C 10,5 C 0,4 km/h
06.10.2013 16:00 10,7 C 84 % 1024,3 hPa 0,0 l/m 0,0 km/h N 8,1 C 10,7 C 0,0 km/h
06.10.2013 17:00 10,8 C 84 % 1024,5 hPa 0,0 l/m 0,0 km/h N 8,2 C 10,8 C 0,8 km/h
06.10.2013 18:00 10,7 C 84 % 1024,9 hPa 0,0 l/m 0,0 km/h N 8,1 C 10,7 C 0,0 km/h
06.10.2013 19:00 10,6 C 84 % 1025,3 hPa 0,0 l/m 0,0 km/h N 8,0 C 10,6 C 0,0 km/h
06.10.2013 20:00 10,4 C 84 % 1025,6 hPa 0,0 l/m 0,0 km/h N 7,8 C 10,4 C 0,0 km/h
06.10.2013 21:00 10,4 C 84 % 1025,9 hPa 0,0 l/m 0,0 km/h N 7,8 C 10,4 C 0,0 km/h
06.10.2013 22:00 10,5 C 83 % 1026,2 hPa 0,0 l/m 0,0 km/h N 7,8 C 10,5 C 0,0 km/h
06.10.2013 23:00 10,6 C 83 % 1026,3 hPa 0,0 l/m 0,9 km/h N 7,7 C 10,6 C 4,8 km/h
Min-Datum _ 03.10.13 04.10.13 30.09.13 - 30.09.13 - 03.10.13 03.10.13 30.09.13
_ Min-Zeit 07:15 13:15 17:45 - 17:00 - 07:15 07:15 17:00
Minimum _ -1,8 C 44 % 1010,2 hPa - 0,0 km/h - -4,0 C -1,8 C 0,0 km/h
Max-Datum _ 30.09.13 01.10.13 03.10.13 06.10.13 05.10.13 - 06.10.13 30.09.13 04.10.13
_ Max-Zeit 15:00 05:00 10:30 05:00 12:15 - 16:45 15:15 13:00
Maximum _ 13,1 C 85 % 1030,7 hPa 0,8 l/m 18,4 km/h
N
- 8,2 C 13,1 C 38,6 km/h
N
Durchschnitt _ 8,3 C 69 % 1021,2 hPa #2,3 l/m 3,7 km/h N 2,7 C 7,9 C 11,9 km/h